Time;durP1;ratioP1;P1;durP2;ratioP2;P2;SDS_P1;SDS_P2;PMS_P1;PMS_P2;Temp;Humidity;BMP_temperature;BMP_pressure;BME280_temperature;BME280_humidity;BME280_pressure;Samples;Min_cycle;Max_cycle;Signal;HPM_P1;HPM_P2
2022/06/28 00:00:27;;;;;;;13.00;8.60;;;14.10;99.90;;;;;;5029604;28;20037;-82
2022/06/28 00:02:53;;;;;;;11.73;9.27;;;14.10;99.90;;;;;;5049185;28;20045;-82
2022/06/28 00:05:19;;;;;;;9.63;8.48;;;14.10;99.90;;;;;;5024738;28;20034;-83
2022/06/28 00:07:44;;;;;;;10.18;8.93;;;14.10;99.90;;;;;;5012984;28;20056;-83
2022/06/28 00:10:12;;;;;;;11.93;8.93;;;14.00;99.90;;;;;;5013318;28;20038;-84
2022/06/28 00:12:39;;;;;;;11.75;9.10;;;14.00;99.90;;;;;;5029878;28;20559;-83
2022/06/28 00:17:51;;;;;;;9.82;8.70;;;13.90;99.90;;;;;;5054237;28;20542;-81
2022/06/28 00:20:17;;;;;;;14.43;9.57;;;13.90;99.90;;;;;;5030092;28;20041;-82
2022/06/28 00:22:43;;;;;;;15.88;9.15;;;13.90;99.90;;;;;;5031967;28;20046;-83
2022/06/28 00:25:08;;;;;;;11.90;9.43;;;13.80;99.90;;;;;;5029037;28;20044;-83
2022/06/28 00:27:35;;;;;;;11.75;9.48;;;13.80;99.90;;;;;;5029662;28;20411;-84
2022/06/28 00:30:01;;;;;;;11.15;9.00;;;13.80;99.90;;;;;;5013357;28;20038;-82
2022/06/28 00:32:28;;;;;;;10.55;9.48;;;13.80;99.90;;;;;;5030569;28;20552;-82
2022/06/28 00:34:53;;;;;;;10.48;9.02;;;13.80;99.90;;;;;;5028695;28;20052;-82
2022/06/28 00:37:19;;;;;;;11.80;8.35;;;13.80;99.90;;;;;;5029599;28;20038;-83
2022/06/28 00:39:44;;;;;;;9.45;8.40;;;13.70;99.90;;;;;;5013255;28;20048;-82
2022/06/28 00:42:10;;;;;;;10.27;8.63;;;13.70;99.90;;;;;;5029498;28;20041;-83
2022/06/28 00:44:37;;;;;;;12.18;8.02;;;13.70;99.90;;;;;;5012602;28;20041;-83
2022/06/28 00:47:02;;;;;;;10.70;8.32;;;13.60;99.90;;;;;;5013446;28;20052;-82
2022/06/28 00:49:29;;;;;;;16.77;8.30;;;13.60;99.90;;;;;;5029624;28;20030;-82
2022/06/28 00:51:57;;;;;;;11.75;8.38;;;13.60;99.90;;;;;;5029438;28;20057;-82
2022/06/28 00:54:23;;;;;;;13.95;8.25;;;13.60;99.90;;;;;;5012025;28;20045;-82
2022/06/28 00:56:48;;;;;;;9.45;8.05;;;13.50;99.90;;;;;;5029507;28;20033;-82
2022/06/28 00:59:14;;;;;;;9.85;8.23;;;13.50;99.90;;;;;;5013621;28;20033;-82
2022/06/28 01:01:40;;;;;;;9.55;7.97;;;13.40;99.90;;;;;;5015217;28;20078;-83
2022/06/28 01:04:05;;;;;;;10.55;8.80;;;13.40;99.90;;;;;;5015558;28;20057;-83
2022/06/28 01:06:31;;;;;;;9.70;7.50;;;13.40;99.90;;;;;;5033125;28;20461;-82
2022/06/28 01:08:56;;;;;;;8.88;7.90;;;13.40;99.90;;;;;;5032881;28;20418;-83
2022/06/28 01:11:22;;;;;;;10.13;8.10;;;13.30;99.90;;;;;;5032941;28;20046;-82
2022/06/28 01:13:50;;;;;;;11.25;8.43;;;13.30;99.90;;;;;;5031957;28;20073;-82
2022/06/28 01:16:17;;;;;;;9.45;7.82;;;13.30;99.90;;;;;;5016350;28;20038;-82
2022/06/28 01:18:42;;;;;;;8.63;7.25;;;13.30;99.90;;;;;;5016314;28;20045;-82
2022/06/28 01:21:11;;;;;;;8.65;7.85;;;13.20;99.90;;;;;;5016298;28;20029;-82
2022/06/28 01:23:37;;;;;;;10.80;8.02;;;13.20;99.90;;;;;;5032349;28;20054;-82
2022/06/28 01:26:03;;;;;;;10.02;7.50;;;13.20;99.90;;;;;;5015663;28;20120;-83
2022/06/28 01:28:29;;;;;;;9.80;7.55;;;13.30;99.90;;;;;;5016129;28;20037;-82
2022/06/28 01:30:55;;;;;;;9.88;7.18;;;13.20;99.90;;;;;;5032719;28;20033;-82
2022/06/28 01:33:20;;;;;;;10.55;7.55;;;13.30;99.90;;;;;;5032672;28;20044;-83
2022/06/28 01:35:46;;;;;;;9.00;7.65;;;13.20;99.90;;;;;;5031563;28;20025;-83
2022/06/28 01:38:12;;;;;;;9.65;7.18;;;13.20;99.90;;;;;;5032467;28;20088;-82
2022/06/28 01:40:38;;;;;;;11.02;6.70;;;13.20;99.90;;;;;;5036265;28;20032;-82
2022/06/28 01:43:04;;;;;;;10.25;6.95;;;13.10;99.90;;;;;;5052450;28;20544;-82
2022/06/28 01:45:30;;;;;;;9.77;7.57;;;13.20;99.90;;;;;;5028212;28;20030;-82
2022/06/28 01:47:55;;;;;;;9.07;7.07;;;13.20;99.90;;;;;;5032978;28;20037;-81
2022/06/28 01:50:21;;;;;;;13.05;7.63;;;13.20;99.90;;;;;;5016063;28;20565;-82
2022/06/28 01:52:47;;;;;;;9.70;7.43;;;13.20;99.90;;;;;;5033122;28;20680;-81
2022/06/28 01:55:12;;;;;;;8.95;7.10;;;13.10;99.90;;;;;;5032421;28;20041;-81
2022/06/28 01:57:39;;;;;;;9.18;7.00;;;13.10;99.90;;;;;;5019702;28;20065;-81
2022/06/28 02:00:06;;;;;;;7.97;6.88;;;13.00;99.90;;;;;;5047935;28;20048;-81
2022/06/28 02:02:32;;;;;;;8.90;7.28;;;13.00;99.90;;;;;;5032679;28;20030;-81
2022/06/28 02:04:58;;;;;;;10.60;7.82;;;13.00;99.90;;;;;;5015414;28;20041;-81
2022/06/28 02:07:24;;;;;;;9.15;7.38;;;13.00;99.90;;;;;;5032452;28;20076;-82
2022/06/28 02:09:49;;;;;;;8.88;7.65;;;13.00;99.90;;;;;;5032322;28;20545;-82
2022/06/28 02:12:15;;;;;;;8.85;7.82;;;13.00;99.90;;;;;;5015370;28;20131;-82
2022/06/28 02:14:40;;;;;;;11.70;7.57;;;13.00;99.90;;;;;;5031060;28;20443;-82
2022/06/28 02:17:06;;;;;;;12.48;7.93;;;13.00;99.90;;;;;;5016137;28;20095;-82
2022/06/28 02:19:31;;;;;;;9.85;7.93;;;13.00;99.90;;;;;;5031809;28;20117;-81
2022/06/28 02:21:57;;;;;;;10.32;8.15;;;13.00;99.90;;;;;;5031458;28;20037;-81
2022/06/28 02:24:22;;;;;;;9.70;8.20;;;13.00;99.90;;;;;;5031016;28;20048;-82
2022/06/28 02:26:48;;;;;;;11.18;7.72;;;12.90;99.90;;;;;;5015866;28;20084;-81
2022/06/28 02:29:13;;;;;;;10.57;7.95;;;12.90;99.90;;;;;;5032563;28;20046;-81
2022/06/28 02:31:39;;;;;;;12.55;7.32;;;12.90;99.90;;;;;;5032425;28;20045;-82
2022/06/28 02:34:05;;;;;;;11.82;8.52;;;12.90;99.90;;;;;;5031140;28;20081;-81
2022/06/28 02:41:42;;;;;;;9.70;8.35;;;12.80;99.90;;;;;;5031919;28;20045;-81
2022/06/28 02:44:08;;;;;;;11.25;8.63;;;12.80;99.90;;;;;;5048758;28;20120;-81
2022/06/28 02:46:33;;;;;;;9.80;8.38;;;12.80;99.90;;;;;;5027442;28;20051;-82
2022/06/28 02:48:59;;;;;;;11.88;8.70;;;12.70;99.90;;;;;;5027835;28;20045;-82
2022/06/28 02:51:25;;;;;;;11.45;8.98;;;12.70;99.90;;;;;;5045168;28;20041;-82
2022/06/28 02:53:54;;;;;;;11.25;8.70;;;12.70;99.90;;;;;;5014324;28;20490;-82
2022/06/28 02:56:20;;;;;;;10.30;8.05;;;12.70;99.90;;;;;;5031610;28;20070;-82
2022/06/28 02:58:45;;;;;;;12.35;9.27;;;12.70;99.90;;;;;;5015685;28;20048;-83
2022/06/28 03:01:11;;;;;;;11.65;8.93;;;12.60;99.90;;;;;;5015625;28;20037;-81
2022/06/28 03:03:37;;;;;;;11.77;8.48;;;12.60;99.90;;;;;;5031905;28;20044;-80
2022/06/28 03:06:03;;;;;;;10.00;8.63;;;12.60;99.90;;;;;;5014843;28;20069;-81
2022/06/28 03:08:29;;;;;;;12.85;9.32;;;12.60;99.90;;;;;;5015362;28;20073;-82
2022/06/28 03:10:54;;;;;;;15.13;9.45;;;12.60;99.90;;;;;;5032103;28;20093;-81
2022/06/28 03:13:20;;;;;;;12.60;9.45;;;12.60;99.90;;;;;;5015175;28;20699;-81
2022/06/28 03:15:46;;;;;;;10.73;8.75;;;12.60;99.90;;;;;;5030933;28;20427;-82
2022/06/28 03:18:11;;;;;;;10.73;9.13;;;12.50;99.90;;;;;;5031408;28;20044;-81
2022/06/28 03:20:37;;;;;;;14.60;9.38;;;12.50;99.90;;;;;;5031650;28;20414;-82
2022/06/28 03:23:02;;;;;;;10.93;9.40;;;12.50;99.90;;;;;;5030873;28;20503;-81
2022/06/28 03:25:28;;;;;;;12.40;9.15;;;12.50;99.90;;;;;;5030400;28;20499;-82
2022/06/28 03:27:54;;;;;;;11.32;9.07;;;12.50;99.90;;;;;;5031148;28;20041;-82
2022/06/28 03:30:19;;;;;;;14.23;9.77;;;12.50;99.90;;;;;;5031366;28;20072;-82
2022/06/28 03:32:45;;;;;;;11.50;9.23;;;12.60;99.90;;;;;;5030990;28;20041;-81
2022/06/28 03:35:10;;;;;;;12.75;9.70;;;12.60;99.90;;;;;;5013993;28;20033;-82
2022/06/28 03:37:37;;;;;;;10.77;8.90;;;12.60;99.90;;;;;;5030704;28;20067;-81
2022/06/28 03:40:04;;;;;;;13.80;8.95;;;12.60;99.90;;;;;;5031457;28;20095;-81
2022/06/28 03:42:30;;;;;;;10.20;8.50;;;12.60;99.90;;;;;;5014583;28;20052;-81
2022/06/28 03:44:55;;;;;;;12.82;8.82;;;12.60;99.90;;;;;;5029920;28;20034;-81
2022/06/28 03:47:21;;;;;;;12.57;8.52;;;12.60;99.90;;;;;;5031242;28;20252;-81
2022/06/28 03:49:49;;;;;;;13.05;8.55;;;12.70;99.90;;;;;;5031575;28;20511;-81
2022/06/28 03:52:16;;;;;;;11.77;8.10;;;12.70;99.90;;;;;;5031325;28;20041;-81
2022/06/28 03:54:41;;;;;;;12.45;9.15;;;12.70;99.90;;;;;;5030700;28;20045;-81
2022/06/28 03:57:07;;;;;;;11.73;8.93;;;12.70;99.90;;;;;;5015123;28;20038;-81
2022/06/28 03:59:33;;;;;;;10.93;8.30;;;12.70;99.90;;;;;;5057965;28;20029;-81
2022/06/28 04:01:59;;;;;;;12.15;8.00;;;12.70;99.90;;;;;;5034449;28;20056;-81
2022/06/28 04:04:24;;;;;;;9.43;8.00;;;12.70;99.90;;;;;;5031767;28;20041;-81
2022/06/28 04:06:50;;;;;;;10.27;8.52;;;12.70;99.90;;;;;;5013765;28;20040;-81
2022/06/28 04:09:17;;;;;;;10.13;8.52;;;12.70;99.90;;;;;;5014076;28;20419;-81
2022/06/28 04:11:43;;;;;;;10.65;8.45;;;12.80;99.90;;;;;;5027669;28;20083;-81
2022/06/28 04:14:13;;;;;;;11.65;8.80;;;12.70;99.90;;;;;;5019087;28;20435;-81
2022/06/28 04:16:41;;;;;;;11.73;7.95;;;12.70;99.90;;;;;;5037938;28;20503;-81
2022/06/28 04:19:07;;;;;;;15.13;8.82;;;12.70;99.90;;;;;;5014964;28;20037;-82
2022/06/28 04:21:32;;;;;;;10.02;7.85;;;12.70;99.90;;;;;;5029071;28;20120;-81
2022/06/28 04:23:58;;;;;;;10.13;8.13;;;12.70;99.90;;;;;;5029383;28;20049;-81
2022/06/28 04:26:23;;;;;;;11.70;8.15;;;12.70;99.90;;;;;;5031512;28;20041;-81
2022/06/28 04:28:49;;;;;;;11.68;7.70;;;12.70;99.90;;;;;;5031229;28;20037;-82
2022/06/28 04:31:15;;;;;;;9.55;8.00;;;12.80;99.90;;;;;;5014830;28;20048;-81
2022/06/28 04:33:41;;;;;;;10.32;8.68;;;12.80;99.90;;;;;;5014470;28;20120;-81
2022/06/28 04:36:07;;;;;;;9.38;7.53;;;12.80;99.90;;;;;;5015990;28;20107;-81
2022/06/28 04:38:33;;;;;;;10.82;7.75;;;12.90;99.90;;;;;;5037129;28;20034;-81
2022/06/28 04:40:59;;;;;;;11.90;8.05;;;12.90;99.90;;;;;;5034019;28;20519;-82
2022/06/28 04:43:25;;;;;;;9.32;7.35;;;13.00;99.90;;;;;;5034578;28;20099;-82
2022/06/28 04:45:50;;;;;;;10.55;8.23;;;13.10;99.90;;;;;;5033477;28;20044;-82
2022/06/28 04:48:16;;;;;;;11.02;7.95;;;13.20;99.90;;;;;;5017980;28;20052;-82
2022/06/28 04:50:42;;;;;;;11.13;7.70;;;13.20;99.90;;;;;;5034316;28;20065;-80
2022/06/28 04:53:07;;;;;;;10.20;7.85;;;13.30;99.90;;;;;;5036384;28;20503;-80
2022/06/28 04:55:33;;;;;;;10.27;7.70;;;13.40;99.90;;;;;;5019306;28;20037;-79
2022/06/28 04:57:59;;;;;;;9.65;7.63;;;13.40;99.90;;;;;;5036130;28;20124;-80
2022/06/28 05:00:25;;;;;;;11.30;7.60;;;13.50;99.90;;;;;;5036277;28;20034;-80
2022/06/28 05:02:50;;;;;;;9.13;7.93;;;13.60;99.90;;;;;;5050518;28;20112;-80
2022/06/28 05:05:16;;;;;;;13.43;7.72;;;13.70;99.90;;;;;;5053350;28;20040;-79
2022/06/28 05:07:41;;;;;;;10.05;7.47;;;13.80;99.90;;;;;;5039218;28;20040;-80
2022/06/28 05:10:07;;;;;;;15.80;7.78;;;13.80;99.90;;;;;;5052075;28;20041;-80
2022/06/28 05:12:33;;;;;;;10.45;7.57;;;13.90;99.90;;;;;;5018817;28;20042;-79
2022/06/28 05:14:58;;;;;;;12.27;7.75;;;14.00;99.90;;;;;;5034460;28;20037;-82
2022/06/28 05:17:24;;;;;;;11.52;7.80;;;14.10;99.90;;;;;;5017331;28;20045;-82
2022/06/28 05:19:51;;;;;;;13.30;7.38;;;14.20;99.90;;;;;;5034491;28;20406;-81
2022/06/28 05:22:16;;;;;;;10.77;7.00;;;14.20;99.90;;;;;;5034779;28;20103;-81
2022/06/28 05:24:42;;;;;;;14.15;7.72;;;14.30;99.90;;;;;;5034992;28;20042;-81
2022/06/28 05:27:07;;;;;;;14.25;7.63;;;14.50;99.90;;;;;;5034369;28;20048;-81
2022/06/28 05:29:33;;;;;;;12.00;7.45;;;14.50;99.90;;;;;;5034389;28;20037;-80
2022/06/28 05:31:59;;;;;;;10.63;6.68;;;14.60;99.90;;;;;;5017947;28;20075;-81
2022/06/28 05:34:24;;;;;;;10.50;7.03;;;14.70;99.90;;;;;;5016598;28;20045;-80
2022/06/28 05:36:50;;;;;;;10.60;6.30;;;14.80;99.90;;;;;;5037009;28;20043;-81
2022/06/28 05:39:16;;;;;;;12.70;6.78;;;14.90;99.90;;;;;;5055133;28;20079;-81
2022/06/28 05:41:42;;;;;;;8.60;5.78;;;15.00;99.90;;;;;;5018226;28;20041;-80
2022/06/28 05:44:10;;;;;;;8.77;6.05;;;15.00;99.90;;;;;;5017362;28;20053;-80
2022/06/28 05:46:36;;;;;;;9.07;6.20;;;15.00;99.90;;;;;;5034343;28;20072;-80
2022/06/28 05:49:02;;;;;;;13.43;6.30;;;15.10;99.90;;;;;;5017269;28;20053;-82
2022/06/28 05:51:29;;;;;;;10.18;6.18;;;15.20;99.90;;;;;;5033895;28;20041;-81
2022/06/28 05:53:55;;;;;;;9.93;6.03;;;15.20;99.90;;;;;;5032857;28;20045;-81
2022/06/28 05:56:21;;;;;;;11.23;5.85;;;15.30;99.90;;;;;;5017100;28;20713;-81
2022/06/28 05:58:47;;;;;;;9.52;6.03;;;15.40;99.90;;;;;;5026553;28;20033;-82
2022/06/28 06:01:12;;;;;;;9.05;5.72;;;15.50;99.90;;;;;;5029385;28;20029;-80
2022/06/28 06:03:38;;;;;;;10.38;6.03;;;15.50;99.90;;;;;;5042204;28;20172;-80
2022/06/28 06:06:04;;;;;;;12.50;6.00;;;15.60;99.90;;;;;;5033159;28;20048;-81
2022/06/28 06:08:29;;;;;;;11.30;5.85;;;15.70;99.90;;;;;;5017668;28;20069;-80
2022/06/28 06:10:55;;;;;;;12.25;6.13;;;15.80;99.90;;;;;;5035493;28;20406;-81
2022/06/28 06:13:20;;;;;;;11.98;5.75;;;15.80;99.90;;;;;;5035129;28;20038;-80
2022/06/28 06:15:46;;;;;;;12.25;5.85;;;15.90;99.90;;;;;;5032750;28;20045;-80
2022/06/28 06:18:12;;;;;;;9.85;5.60;;;16.00;99.90;;;;;;5016122;28;20042;-80
2022/06/28 06:20:37;;;;;;;12.48;5.82;;;16.10;99.90;;;;;;5031634;28;20044;-80
2022/06/28 06:23:03;;;;;;;8.13;4.78;;;16.20;99.90;;;;;;5033663;28;20033;-81
2022/06/28 06:25:28;;;;;;;8.23;4.97;;;16.30;99.90;;;;;;5033505;28;20048;-79
2022/06/28 06:27:54;;;;;;;11.10;4.70;;;16.40;99.90;;;;;;5041544;28;20041;-81
2022/06/28 06:30:20;;;;;;;8.40;4.50;;;16.40;99.90;;;;;;5046213;28;20033;-80
2022/06/28 06:32:45;;;;;;;9.90;4.32;;;16.50;99.90;;;;;;5053623;28;20052;-80
2022/06/28 06:35:11;;;;;;;11.90;4.53;;;16.70;99.90;;;;;;5032605;28;20561;-79
2022/06/28 06:37:36;;;;;;;8.52;4.88;;;16.80;99.90;;;;;;5035838;28;20387;-79
2022/06/28 06:40:03;;;;;;;11.25;4.57;;;16.80;99.90;;;;;;5016630;28;20030;-80
2022/06/28 06:42:29;;;;;;;9.13;4.80;;;16.90;99.90;;;;;;5033828;28;20088;-80
2022/06/28 06:44:55;;;;;;;11.02;4.80;;;16.90;99.90;;;;;;5031486;28;20107;-80
2022/06/28 06:47:21;;;;;;;9.93;5.00;;;17.00;99.90;;;;;;5032526;28;20048;-80
2022/06/28 06:49:46;;;;;;;9.25;4.60;;;17.00;99.90;;;;;;5032863;28;20562;-80
2022/06/28 06:52:12;;;;;;;7.53;4.53;;;17.10;99.90;;;;;;5032361;28;20075;-79
2022/06/28 06:54:38;;;;;;;10.07;4.90;;;17.20;99.90;;;;;;5031824;28;20120;-80
2022/06/28 06:57:04;;;;;;;11.75;4.85;;;17.40;99.90;;;;;;5032646;28;20095;-80
2022/06/28 06:59:29;;;;;;;10.35;5.00;;;17.50;99.90;;;;;;5045220;28;20025;-79
2022/06/28 07:01:55;;;;;;;7.57;4.40;;;17.50;99.90;;;;;;5049174;28;20091;-79
2022/06/28 07:04:20;;;;;;;9.07;4.93;;;17.60;99.90;;;;;;5033517;28;20120;-80
2022/06/28 07:06:46;;;;;;;9.93;5.22;;;17.70;99.90;;;;;;5034837;28;20066;-80
2022/06/28 07:09:12;;;;;;;10.63;3.97;;;17.70;99.90;;;;;;5052372;28;20041;-79
2022/06/28 07:11:38;;;;;;;10.75;3.92;;;17.80;99.90;;;;;;5029579;28;20053;-79
2022/06/28 07:14:04;;;;;;;5.97;3.92;;;18.00;99.90;;;;;;5031905;28;20041;-79
2022/06/28 07:16:29;;;;;;;13.13;4.68;;;18.20;99.90;;;;;;5032227;28;20125;-80
2022/06/28 07:18:55;;;;;;;7.78;3.80;;;18.30;99.90;;;;;;5032387;28;20045;-81
2022/06/28 07:21:20;;;;;;;11.65;3.70;;;18.40;99.90;;;;;;5030248;28;20170;-80
2022/06/28 07:23:46;;;;;;;9.00;3.50;;;18.50;99.90;;;;;;5047666;28;20507;-79
2022/06/28 07:26:12;;;;;;;9.07;3.10;;;18.70;99.90;;;;;;5015714;28;20045;-79
2022/06/28 07:28:37;;;;;;;10.82;3.63;;;18.90;99.90;;;;;;5033064;28;20052;-79
2022/06/28 07:31:03;;;;;;;9.13;3.08;;;19.00;99.90;;;;;;5032425;28;20037;-80
2022/06/28 07:33:29;;;;;;;8.13;3.30;;;19.20;99.90;;;;;;5032522;28;20542;-79
2022/06/28 07:35:55;;;;;;;12.48;2.90;;;19.50;99.90;;;;;;5034268;28;20069;-79
2022/06/28 07:38:20;;;;;;;13.85;2.40;;;19.50;99.90;;;;;;5015996;28;20116;-80
2022/06/28 07:40:46;;;;;;;8.18;2.60;;;19.20;99.90;;;;;;5034039;28;20059;-80
2022/06/28 07:43:11;;;;;;;8.73;1.98;;;19.10;99.90;;;;;;5033172;28;20091;-80
2022/06/28 07:45:39;;;;;;;5.88;1.80;;;18.80;99.90;;;;;;5031386;28;20060;-80
2022/06/28 07:48:06;;;;;;;5.63;2.00;;;18.60;99.90;;;;;;5016853;28;20140;-80
2022/06/28 07:53:17;;;;;;;10.10;2.13;;;18.30;99.90;;;;;;5049270;28;20046;-80
2022/06/28 07:55:43;;;;;;;11.68;2.17;;;18.60;99.90;;;;;;5032490;28;20037;-80
2022/06/28 07:58:08;;;;;;;8.93;2.03;;;18.90;99.90;;;;;;5038663;28;20029;-79
2022/06/28 08:00:34;;;;;;;7.15;2.20;;;19.10;99.90;;;;;;5033409;28;20041;-79
2022/06/28 08:03:00;;;;;;;6.28;1.75;;;19.40;99.90;;;;;;5030136;28;20033;-79
2022/06/28 08:05:25;;;;;;;10.73;2.22;;;19.40;99.90;;;;;;5046127;28;20065;-79
2022/06/28 08:07:51;;;;;;;8.80;1.65;;;19.30;99.90;;;;;;5048862;28;20491;-79
2022/06/28 08:10:17;;;;;;;10.68;1.77;;;19.20;99.90;;;;;;5033077;28;20037;-79
2022/06/28 08:12:43;;;;;;;9.60;1.77;;;18.90;99.90;;;;;;5054165;28;20044;-79
2022/06/28 08:15:09;;;;;;;9.70;2.08;;;18.90;99.90;;;;;;5038044;28;20079;-79
2022/06/28 08:17:35;;;;;;;8.88;1.88;;;19.10;99.90;;;;;;5048044;28;20507;-80
2022/06/28 08:20:01;;;;;;;6.72;1.60;;;19.30;99.90;;;;;;5034661;28;20034;-79
2022/06/28 08:22:27;;;;;;;8.35;1.70;;;19.50;99.90;;;;;;5060351;28;20130;-80
2022/06/28 08:24:52;;;;;;;7.38;1.80;;;19.80;99.90;;;;;;5049242;28;20115;-80
2022/06/28 08:27:18;;;;;;;8.45;1.52;;;20.00;99.90;;;;;;5048298;28;20032;-79
2022/06/28 08:29:45;;;;;;;6.18;1.55;;;20.10;99.90;;;;;;5046150;28;20033;-78
2022/06/28 08:32:11;;;;;;;9.60;1.50;;;20.20;99.90;;;;;;5050093;28;20048;-79
2022/06/28 08:34:38;;;;;;;11.38;2.00;;;20.40;99.90;;;;;;5053502;28;20507;-78
2022/06/28 08:37:04;;;;;;;6.95;1.30;;;20.40;99.90;;;;;;5049557;28;20086;-80
2022/06/28 08:39:30;;;;;;;6.32;1.60;;;20.60;99.90;;;;;;5030517;28;20028;-79
2022/06/28 08:42:00;;;;;;;6.43;1.70;;;20.70;99.90;;;;;;5049368;28;20095;-78
2022/06/28 08:44:27;;;;;;;8.45;1.60;;;20.70;99.90;;;;;;5016762;28;20037;-79
2022/06/28 08:46:53;;;;;;;7.38;1.67;;;20.70;99.90;;;;;;5036774;28;20513;-79
2022/06/28 08:49:38;;;;;;;7.00;1.63;;;20.70;99.90;;;;;;5048758;28;20119;-78
2022/06/28 08:52:07;;;;;;;9.10;1.50;;;20.80;99.90;;;;;;5043332;28;20042;-79
2022/06/28 08:54:34;;;;;;;6.97;1.40;;;21.00;99.90;;;;;;5042939;28;20052;-79
2022/06/28 08:56:59;;;;;;;6.00;1.20;;;21.00;99.90;;;;;;5053947;28;20041;-79
2022/06/28 08:59:26;;;;;;;6.90;1.13;;;21.10;99.90;;;;;;5035763;28;20422;-79
2022/06/28 09:01:52;;;;;;;6.82;1.33;;;21.20;99.90;;;;;;5033227;28;20403;-78
2022/06/28 09:04:18;;;;;;;7.18;1.30;;;21.10;99.90;;;;;;5032931;28;20046;-79
2022/06/28 09:06:43;;;;;;;6.50;1.30;;;21.20;99.90;;;;;;5018050;28;20042;-79
2022/06/28 09:09:09;;;;;;;4.90;1.25;;;21.30;99.90;;;;;;5032177;28;20496;-79
2022/06/28 09:11:40;;;;;;;4.95;1.20;;;21.40;99.90;;;;;;5033786;28;20041;-80
2022/06/28 09:14:26;;;;;;;10.48;1.40;;;21.40;99.90;;;;;;5032484;28;20045;-78
2022/06/28 09:16:53;;;;;;;6.38;1.10;;;21.70;99.90;;;;;;5032594;28;20036;-79
2022/06/28 09:19:33;;;;;;;7.90;1.80;;;21.70;99.90;;;;;;5039939;28;20399;-78
2022/06/28 09:21:59;;;;;;;4.80;1.13;;;21.60;99.90;;;;;;5037611;28;20033;-77
2022/06/28 09:24:25;;;;;;;6.72;1.48;;;21.30;99.90;;;;;;5048274;28;20564;-78
2022/06/28 09:26:59;;;;;;;6.53;1.40;;;20.90;99.90;;;;;;5044380;28;20034;-78
2022/06/28 09:29:24;;;;;;;4.88;1.20;;;20.70;99.90;;;;;;5014743;28;20452;-78
2022/06/28 09:31:50;;;;;;;5.55;1.10;;;20.40;99.90;;;;;;5031247;28;20124;-78
2022/06/28 09:34:16;;;;;;;5.28;1.40;;;20.20;99.90;;;;;;5044334;28;20056;-78
2022/06/28 09:36:56;;;;;;;8.60;1.45;;;20.00;99.90;;;;;;5037180;28;20045;-78
2022/06/28 09:39:27;;;;;;;5.30;1.50;;;20.00;99.90;;;;;;5031754;28;20072;-78
2022/06/28 09:41:54;;;;;;;6.30;1.60;;;20.00;99.90;;;;;;5032117;28;20042;-78
2022/06/28 09:44:25;;;;;;;6.30;1.42;;;20.40;99.90;;;;;;5032429;28;20137;-78
2022/06/28 09:46:52;;;;;;;5.82;1.67;;;20.40;99.90;;;;;;5015490;28;20038;-78
2022/06/28 09:49:18;;;;;;;5.35;1.30;;;20.40;99.90;;;;;;5032333;28;20045;-78
2022/06/28 09:51:45;;;;;;;6.68;1.60;;;20.20;99.90;;;;;;5049337;28;20572;-78
2022/06/28 09:54:11;;;;;;;9.20;1.75;;;20.10;99.90;;;;;;5050513;28;20411;-78
2022/06/28 09:56:42;;;;;;;9.85;2.00;;;19.90;99.90;;;;;;5050416;28;20048;-78
2022/06/28 09:59:10;;;;;;;12.85;1.77;;;19.90;99.90;;;;;;5025814;28;20029;-78
2022/06/28 10:01:36;;;;;;;8.27;1.70;;;19.80;99.90;;;;;;5029431;28;20041;-78
2022/06/28 10:04:03;;;;;;;6.93;1.67;;;19.70;99.90;;;;;;5046230;28;20068;-77
2022/06/28 10:06:29;;;;;;;6.30;1.50;;;19.70;99.90;;;;;;5019164;28;20037;-78
2022/06/28 10:08:55;;;;;;;8.27;1.63;;;19.70;99.90;;;;;;5032201;28;20099;-79
2022/06/28 10:11:20;;;;;;;5.85;1.70;;;19.80;99.90;;;;;;5029610;28;20060;-79
2022/06/28 10:16:46;;;;;;;7.25;1.80;;;20.20;99.90;;;;;;5029992;28;20041;-79
2022/06/28 10:19:16;;;;;;;11.18;1.92;;;20.50;99.90;;;;;;5040615;28;20034;-78
2022/06/28 10:21:46;;;;;;;11.48;2.03;;;20.80;99.90;;;;;;5060419;28;20047;-79
2022/06/28 10:24:13;;;;;;;7.43;1.92;;;21.10;99.90;;;;;;5044673;28;20040;-78
2022/06/28 10:26:43;;;;;;;6.43;1.60;;;21.40;99.90;;;;;;5042285;28;20037;-78
2022/06/28 10:29:09;;;;;;;9.40;1.92;;;21.50;99.90;;;;;;5039565;28;20045;-78
2022/06/28 10:31:39;;;;;;;7.18;1.50;;;21.80;99.90;;;;;;5033311;28;20068;-77
2022/06/28 10:34:08;;;;;;;4.40;1.40;;;21.90;99.90;;;;;;5035113;28;20132;-77
2022/06/28 10:37:00;;;;;;;6.22;1.50;;;21.80;99.90;;;;;;5031161;28;20052;-77
2022/06/28 10:39:31;;;;;;;8.65;1.58;;;21.60;99.90;;;;;;5023447;28;20040;-77
2022/06/28 10:42:00;;;;;;;7.30;2.05;;;21.40;99.90;;;;;;5046717;28;20037;-77
2022/06/28 10:44:30;;;;;;;7.35;2.00;;;21.20;99.90;;;;;;5028667;28;20041;-78
2022/06/28 10:47:09;;;;;;;4.55;1.50;;;21.10;99.90;;;;;;5031387;28;20084;-78
2022/06/28 10:49:44;;;;;;;5.65;1.40;;;21.10;99.90;;;;;;5014386;28;20044;-77
2022/06/28 10:52:17;;;;;;;8.13;1.50;;;21.00;99.90;;;;;;5030981;28;20083;-77
2022/06/28 10:54:52;;;;;;;6.57;1.70;;;21.10;99.90;;;;;;5030005;28;20091;-77
2022/06/28 10:57:26;;;;;;;8.80;1.60;;;21.30;99.90;;;;;;5030317;28;20072;-78
2022/06/28 11:00:03;;;;;;;6.85;1.73;;;21.20;99.90;;;;;;5030949;28;20380;-78
2022/06/28 11:02:50;;;;;;;8.68;1.98;;;21.20;99.90;;;;;;5014353;28;20160;-77
2022/06/28 11:05:18;;;;;;;6.40;1.40;;;21.40;99.90;;;;;;5030240;28;20045;-77
2022/06/28 11:07:59;;;;;;;7.20;1.38;;;21.40;99.90;;;;;;5030953;28;20059;-77
2022/06/28 11:10:25;;;;;;;7.53;1.55;;;21.40;99.90;;;;;;5030451;28;20041;-78
2022/06/28 11:12:51;;;;;;;4.40;1.58;;;21.70;99.90;;;;;;5013421;28;20060;-79
2022/06/28 11:15:36;;;;;;;5.88;1.50;;;22.20;99.90;;;;;;5012019;28;20041;-77
2022/06/28 11:18:02;;;;;;;5.45;1.40;;;22.60;99.90;;;;;;5031003;28;20045;-77
2022/06/28 11:20:30;;;;;;;8.00;1.60;;;22.70;99.90;;;;;;5030523;28;20029;-77
2022/06/28 11:22:56;;;;;;;7.03;1.60;;;22.60;99.90;;;;;;5014262;28;20390;-77
2022/06/28 11:25:24;;;;;;;5.22;1.60;;;22.40;99.90;;;;;;5013305;28;20128;-77
2022/06/28 11:27:55;;;;;;;8.05;1.67;;;22.10;99.90;;;;;;5030488;28;20049;-77
2022/06/28 11:30:27;;;;;;;5.55;1.45;;;22.10;99.90;;;;;;5030319;28;20039;-77
2022/06/28 11:32:59;;;;;;;5.53;1.30;;;22.30;99.90;;;;;;5030400;28;20037;-78
2022/06/28 11:35:30;;;;;;;5.18;1.63;;;22.50;99.90;;;;;;5012832;28;20569;-77
2022/06/28 11:37:58;;;;;;;7.32;1.40;;;22.70;99.90;;;;;;5030227;28;20129;-77
2022/06/28 11:40:27;;;;;;;4.03;1.40;;;23.00;99.90;;;;;;5030364;28;20522;-78
2022/06/28 11:43:00;;;;;;;5.30;1.30;;;23.30;99.90;;;;;;5013566;28;20041;-76
2022/06/28 11:45:28;;;;;;;5.82;1.30;;;23.60;99.90;;;;;;5029261;28;20041;-77
2022/06/28 11:47:53;;;;;;;7.78;1.65;;;23.80;99.90;;;;;;5029982;28;20119;-77
2022/06/28 11:50:19;;;;;;;4.95;1.23;;;23.60;99.90;;;;;;5029181;28;20507;-77
2022/06/28 11:52:53;;;;;;;5.43;1.42;;;23.40;99.90;;;;;;5028644;28;20052;-77
2022/06/28 11:55:57;;;;;;;7.72;1.50;;;23.60;99.90;;;;;;5029250;28;20518;-77
2022/06/28 11:58:33;;;;;;;3.65;1.20;;;24.10;99.90;;;;;;5032228;28;20048;-77
2022/06/28 12:01:08;;;;;;;6.07;1.20;;;24.00;99.90;;;;;;5030018;28;20054;-77
2022/06/28 12:03:42;;;;;;;6.13;1.52;;;24.10;99.90;;;;;;5029550;28;20171;-77
2022/06/28 12:06:10;;;;;;;8.13;1.45;;;24.40;99.90;;;;;;5029449;28;20053;-77
2022/06/28 12:08:44;;;;;;;7.10;1.48;;;24.70;99.90;;;;;;5029132;28;20033;-77
2022/06/28 12:11:32;;;;;;;4.82;1.30;;;25.10;99.90;;;;;;5029920;28;20504;-77
2022/06/28 12:14:03;;;;;;;8.02;1.15;;;24.90;99.70;;;;;;5029272;28;20392;-76
2022/06/28 12:16:28;;;;;;;6.35;1.45;;;24.60;99.90;;;;;;5029452;28;20081;-77
2022/06/28 12:18:55;;;;;;;5.03;1.08;;;24.70;99.90;;;;;;5028762;28;20156;-77
2022/06/28 12:21:21;;;;;;;5.72;1.23;;;25.10;99.90;;;;;;5030061;28;20440;-77
2022/06/28 12:23:51;;;;;;;5.35;1.30;;;25.40;98.80;;;;;;5029092;28;20045;-77
2022/06/28 12:26:17;;;;;;;7.07;1.23;;;25.80;98.30;;;;;;5013450;28;20172;-77
2022/06/28 12:28:43;;;;;;;3.40;1.20;;;26.00;98.90;;;;;;5029787;28;20198;-78
2022/06/28 12:31:09;;;;;;;5.25;1.35;;;26.00;97.90;;;;;;5029895;28;20506;-77
2022/06/28 12:33:35;;;;;;;6.32;1.10;;;26.30;97.50;;;;;;5029430;28;20042;-77
2022/06/28 12:36:00;;;;;;;4.63;1.60;;;26.20;97.00;;;;;;5029254;28;20395;-76
2022/06/28 12:38:26;;;;;;;5.78;1.25;;;26.00;96.70;;;;;;5013227;28;20096;-77
2022/06/28 12:40:51;;;;;;;6.15;1.30;;;26.00;96.70;;;;;;5029489;28;20038;-76
2022/06/28 12:43:17;;;;;;;4.03;1.20;;;26.00;96.50;;;;;;5029854;28;20041;-76
2022/06/28 12:45:43;;;;;;;7.70;1.30;;;25.70;96.50;;;;;;5028750;28;20041;-76
2022/06/28 12:48:09;;;;;;;3.30;1.00;;;25.70;95.90;;;;;;5013007;28;20041;-76
2022/06/28 12:50:35;;;;;;;5.68;1.20;;;26.20;96.30;;;;;;5029298;28;20129;-77
2022/06/28 12:53:00;;;;;;;3.78;1.13;;;26.40;95.90;;;;;;5029633;28;20049;-77
2022/06/28 12:55:26;;;;;;;4.50;1.10;;;26.70;95.70;;;;;;5028605;28;20034;-76